sensor_id;sensor_type;location;lat;lon;timestamp;pressure;altitude;pressure_sealevel;temperature;humidity
51271;BME280;37744;50.960;4.136;2022-10-16T00:01:43;100555.63;;;13.24;100.00
51271;BME280;37744;50.960;4.136;2022-10-16T00:04:11;100556.50;;;13.25;100.00
51271;BME280;37744;50.960;4.136;2022-10-16T00:06:37;100554.91;;;13.21;100.00
51271;BME280;37744;50.960;4.136;2022-10-16T00:09:07;100558.41;;;13.21;100.00
51271;BME280;37744;50.960;4.136;2022-10-16T00:11:37;100562.75;;;13.22;100.00
51271;BME280;37744;50.960;4.136;2022-10-16T00:14:07;100559.28;;;13.22;100.00
51271;BME280;37744;50.960;4.136;2022-10-16T00:16:35;100562.97;;;13.17;100.00
51271;BME280;37744;50.960;4.136;2022-10-16T00:19:17;100571.22;;;13.11;100.00
51271;BME280;37744;50.960;4.136;2022-10-16T00:21:42;100565.56;;;13.19;100.00
51271;BME280;37744;50.960;4.136;2022-10-16T00:24:09;100570.75;;;13.21;100.00
51271;BME280;37744;50.960;4.136;2022-10-16T00:26:37;100562.00;;;13.20;100.00
51271;BME280;37744;50.960;4.136;2022-10-16T00:29:05;100571.66;;;13.20;100.00
51271;BME280;37744;50.960;4.136;2022-10-16T00:31:35;100568.34;;;13.16;100.00
51271;BME280;37744;50.960;4.136;2022-10-16T00:34:03;100555.28;;;13.13;100.00
51271;BME280;37744;50.960;4.136;2022-10-16T00:36:32;100555.94;;;13.18;100.00
51271;BME280;37744;50.960;4.136;2022-10-16T00:39:01;100553.38;;;13.16;100.00
51271;BME280;37744;50.960;4.136;2022-10-16T00:41:29;100557.72;;;13.17;100.00
51271;BME280;37744;50.960;4.136;2022-10-16T00:44:03;100555.16;;;13.16;100.00
51271;BME280;37744;50.960;4.136;2022-10-16T00:46:40;100565.00;;;13.12;100.00
51271;BME280;37744;50.960;4.136;2022-10-16T00:49:13;100559.03;;;13.09;100.00
51271;BME280;37744;50.960;4.136;2022-10-16T00:51:48;100554.47;;;13.12;100.00
51271;BME280;37744;50.960;4.136;2022-10-16T00:54:20;100554.31;;;13.15;100.00
51271;BME280;37744;50.960;4.136;2022-10-16T00:56:49;100564.28;;;13.09;100.00
51271;BME280;37744;50.960;4.136;2022-10-16T00:59:22;100562.44;;;13.11;100.00
51271;BME280;37744;50.960;4.136;2022-10-16T01:01:53;100562.88;;;13.01;100.00
51271;BME280;37744;50.960;4.136;2022-10-16T01:04:25;100565.06;;;13.11;100.00
51271;BME280;37744;50.960;4.136;2022-10-16T01:12:50;100577.16;;;12.97;100.00
51271;BME280;37744;50.960;4.136;2022-10-16T01:18:30;100570.94;;;12.98;100.00
51271;BME280;37744;50.960;4.136;2022-10-16T01:21:04;100574.50;;;12.97;100.00
51271;BME280;37744;50.960;4.136;2022-10-16T01:27:11;100580.72;;;12.96;100.00
51271;BME280;37744;50.960;4.136;2022-10-16T01:32:33;100582.38;;;12.99;100.00
51271;BME280;37744;50.960;4.136;2022-10-16T01:35:18;100572.88;;;12.95;100.00
51271;BME280;37744;50.960;4.136;2022-10-16T01:41:02;100572.63;;;12.82;100.00
51271;BME280;37744;50.960;4.136;2022-10-16T01:43:39;100570.88;;;12.81;100.00
51271;BME280;37744;50.960;4.136;2022-10-16T01:46:07;100574.31;;;12.83;100.00
51271;BME280;37744;50.960;4.136;2022-10-16T01:48:39;100570.66;;;12.85;100.00
51271;BME280;37744;50.960;4.136;2022-10-16T01:51:12;100556.94;;;12.79;100.00
51271;BME280;37744;50.960;4.136;2022-10-16T01:53:41;100550.50;;;12.84;100.00
51271;BME280;37744;50.960;4.136;2022-10-16T01:56:22;100560.34;;;12.81;100.00
51271;BME280;37744;50.960;4.136;2022-10-16T01:59:00;100560.59;;;12.76;100.00
51271;BME280;37744;50.960;4.136;2022-10-16T02:01:31;100564.06;;;12.77;100.00
51271;BME280;37744;50.960;4.136;2022-10-16T02:04:11;100565.06;;;12.74;100.00
51271;BME280;37744;50.960;4.136;2022-10-16T02:06:39;100570.00;;;12.82;100.00
51271;BME280;37744;50.960;4.136;2022-10-16T02:09:08;100576.31;;;12.78;100.00
51271;BME280;37744;50.960;4.136;2022-10-16T02:11:34;100576.47;;;12.74;100.00
51271;BME280;37744;50.960;4.136;2022-10-16T02:14:05;100586.09;;;12.75;100.00
51271;BME280;37744;50.960;4.136;2022-10-16T02:16:36;100581.88;;;12.71;100.00
51271;BME280;37744;50.960;4.136;2022-10-16T02:19:04;100575.75;;;12.71;100.00
51271;BME280;37744;50.960;4.136;2022-10-16T02:21:55;100569.75;;;12.67;100.00
51271;BME280;37744;50.960;4.136;2022-10-16T02:24:41;100570.63;;;12.68;100.00
51271;BME280;37744;50.960;4.136;2022-10-16T02:30:22;100578.75;;;12.63;100.00
51271;BME280;37744;50.960;4.136;2022-10-16T02:32:55;100577.81;;;12.64;100.00
51271;BME280;37744;50.960;4.136;2022-10-16T02:35:25;100571.84;;;12.60;100.00
51271;BME280;37744;50.960;4.136;2022-10-16T02:37:58;100578.75;;;12.63;100.00
51271;BME280;37744;50.960;4.136;2022-10-16T02:40:26;100584.03;;;12.63;100.00
51271;BME280;37744;50.960;4.136;2022-10-16T02:42:53;100578.75;;;12.63;100.00
51271;BME280;37744;50.960;4.136;2022-10-16T02:45:24;100583.16;;;12.63;100.00
51271;BME280;37744;50.960;4.136;2022-10-16T02:47:52;100580.47;;;12.64;100.00
51271;BME280;37744;50.960;4.136;2022-10-16T02:50:23;100583.25;;;12.61;100.00
51271;BME280;37744;50.960;4.136;2022-10-16T02:52:53;100582.88;;;12.69;100.00
51271;BME280;37744;50.960;4.136;2022-10-16T02:55:19;100588.41;;;12.63;100.00
51271;BME280;37744;50.960;4.136;2022-10-16T02:57:48;100591.00;;;12.64;100.00
51271;BME280;37744;50.960;4.136;2022-10-16T03:00:15;100580.25;;;12.69;100.00
51271;BME280;37744;50.960;4.136;2022-10-16T03:02:43;100576.19;;;12.61;100.00
51271;BME280;37744;50.960;4.136;2022-10-16T03:05:12;100582.38;;;12.60;100.00
51271;BME280;37744;50.960;4.136;2022-10-16T03:07:41;100586.66;;;12.63;100.00
51271;BME280;37744;50.960;4.136;2022-10-16T03:10:13;100597.03;;;12.66;100.00
51271;BME280;37744;50.960;4.136;2022-10-16T03:12:41;100595.19;;;12.68;100.00
51271;BME280;37744;50.960;4.136;2022-10-16T03:15:13;100596.22;;;12.66;100.00
51271;BME280;37744;50.960;4.136;2022-10-16T03:17:40;100606.38;;;12.73;100.00
51271;BME280;37744;50.960;4.136;2022-10-16T03:20:08;100610.00;;;12.71;100.00
51271;BME280;37744;50.960;4.136;2022-10-16T03:22:33;100613.00;;;12.63;100.00
51271;BME280;37744;50.960;4.136;2022-10-16T03:25:00;100620.75;;;12.66;100.00
51271;BME280;37744;50.960;4.136;2022-10-16T03:27:29;100625.41;;;12.61;100.00
51271;BME280;37744;50.960;4.136;2022-10-16T03:29:54;100628.03;;;12.61;100.00
51271;BME280;37744;50.960;4.136;2022-10-16T03:32:23;100624.19;;;12.68;100.00
51271;BME280;37744;50.960;4.136;2022-10-16T03:34:52;100627.88;;;12.64;100.00
51271;BME280;37744;50.960;4.136;2022-10-16T03:37:20;100622.47;;;12.67;100.00
51271;BME280;37744;50.960;4.136;2022-10-16T03:39:48;100623.25;;;12.69;100.00
51271;BME280;37744;50.960;4.136;2022-10-16T03:42:17;100627.75;;;12.67;100.00
51271;BME280;37744;50.960;4.136;2022-10-16T03:44:46;100630.31;;;12.69;100.00
51271;BME280;37744;50.960;4.136;2022-10-16T03:47:18;100635.59;;;12.69;100.00
51271;BME280;37744;50.960;4.136;2022-10-16T03:49:51;100626.13;;;12.65;100.00
51271;BME280;37744;50.960;4.136;2022-10-16T03:52:19;100620.03;;;12.63;100.00
51271;BME280;37744;50.960;4.136;2022-10-16T03:54:46;100628.75;;;12.65;100.00
51271;BME280;37744;50.960;4.136;2022-10-16T03:57:11;100630.31;;;12.69;100.00
51271;BME280;37744;50.960;4.136;2022-10-16T03:59:39;100627.75;;;12.67;100.00
51271;BME280;37744;50.960;4.136;2022-10-16T04:02:05;100629.91;;;12.59;100.00
51271;BME280;37744;50.960;4.136;2022-10-16T04:04:30;100635.03;;;12.62;100.00
51271;BME280;37744;50.960;4.136;2022-10-16T04:06:57;100640.28;;;12.62;100.00
51271;BME280;37744;50.960;4.136;2022-10-16T04:09:26;100639.41;;;12.61;100.00
51271;BME280;37744;50.960;4.136;2022-10-16T04:11:51;100649.84;;;12.65;100.00
51271;BME280;37744;50.960;4.136;2022-10-16T04:14:16;100648.72;;;12.70;100.00
51271;BME280;37744;50.960;4.136;2022-10-16T04:16:45;100658.44;;;12.68;100.00
51271;BME280;37744;50.960;4.136;2022-10-16T04:19:13;100652.38;;;12.66;100.00
51271;BME280;37744;50.960;4.136;2022-10-16T04:21:43;100657.97;;;12.60;100.00
51271;BME280;37744;50.960;4.136;2022-10-16T04:24:13;100671.13;;;12.60;100.00
51271;BME280;37744;50.960;4.136;2022-10-16T04:26:42;100660.66;;;12.58;100.00
51271;BME280;37744;50.960;4.136;2022-10-16T04:29:07;100672.84;;;12.61;100.00
51271;BME280;37744;50.960;4.136;2022-10-16T04:31:33;100673.63;;;12.63;100.00
51271;BME280;37744;50.960;4.136;2022-10-16T04:34:00;100670.41;;;12.56;100.00
51271;BME280;37744;50.960;4.136;2022-10-16T04:36:29;100687.88;;;12.59;100.00
51271;BME280;37744;50.960;4.136;2022-10-16T04:38:57;100681.78;;;12.57;100.00
51271;BME280;37744;50.960;4.136;2022-10-16T04:41:26;100673.88;;;12.57;100.00
51271;BME280;37744;50.960;4.136;2022-10-16T04:43:54;100673.03;;;12.56;100.00
51271;BME280;37744;50.960;4.136;2022-10-16T04:46:23;100677.03;;;12.65;100.00
51271;BME280;37744;50.960;4.136;2022-10-16T04:48:51;100690.41;;;12.60;100.00
51271;BME280;37744;50.960;4.136;2022-10-16T04:51:17;100689.44;;;12.63;100.00
51271;BME280;37744;50.960;4.136;2022-10-16T04:53:46;100689.59;;;12.60;100.00
51271;BME280;37744;50.960;4.136;2022-10-16T04:56:12;100686.75;;;12.65;100.00
51271;BME280;37744;50.960;4.136;2022-10-16T04:58:39;100680.88;;;12.58;100.00
51271;BME280;37744;50.960;4.136;2022-10-16T05:01:04;100674.19;;;12.51;100.00
51271;BME280;37744;50.960;4.136;2022-10-16T05:03:30;100690.56;;;12.57;100.00
51271;BME280;37744;50.960;4.136;2022-10-16T05:05:59;100692.63;;;12.51;100.00
51271;BME280;37744;50.960;4.136;2022-10-16T05:08:25;100709.06;;;12.56;100.00
51271;BME280;37744;50.960;4.136;2022-10-16T05:10:51;100714.72;;;12.46;100.00
51271;BME280;37744;50.960;4.136;2022-10-16T05:13:18;100713.75;;;12.49;100.00
51271;BME280;37744;50.960;4.136;2022-10-16T05:15:47;100723.31;;;12.52;100.00
51271;BME280;37744;50.960;4.136;2022-10-16T05:18:16;100728.72;;;12.49;100.00
51271;BME280;37744;50.960;4.136;2022-10-16T05:20:44;100736.63;;;12.49;100.00
51271;BME280;37744;50.960;4.136;2022-10-16T05:23:13;100725.28;;;12.46;100.00
51271;BME280;37744;50.960;4.136;2022-10-16T05:25:39;100728.97;;;12.42;100.00
51271;BME280;37744;50.960;4.136;2022-10-16T05:28:06;100715.16;;;12.37;100.00
51271;BME280;37744;50.960;4.136;2022-10-16T05:30:31;100728.19;;;12.40;100.00
51271;BME280;37744;50.960;4.136;2022-10-16T05:33:00;100726.50;;;12.39;100.00
51271;BME280;37744;50.960;4.136;2022-10-16T05:35:26;100730.69;;;12.43;100.00
51271;BME280;37744;50.960;4.136;2022-10-16T05:37:55;100734.53;;;12.36;100.00
51271;BME280;37744;50.960;4.136;2022-10-16T05:40:20;100729.13;;;12.39;100.00
51271;BME280;37744;50.960;4.136;2022-10-16T05:42:46;100739.50;;;12.42;100.00
51271;BME280;37744;50.960;4.136;2022-10-16T05:45:15;100744.84;;;12.41;100.00
51271;BME280;37744;50.960;4.136;2022-10-16T05:47:40;100748.50;;;12.38;100.00
51271;BME280;37744;50.960;4.136;2022-10-16T05:50:08;100759.88;;;12.39;100.00
51271;BME280;37744;50.960;4.136;2022-10-16T05:52:40;100764.28;;;12.38;100.00
51271;BME280;37744;50.960;4.136;2022-10-16T05:55:06;100766.78;;;12.41;100.00
51271;BME280;37744;50.960;4.136;2022-10-16T05:57:32;100770.22;;;12.43;100.00
51271;BME280;37744;50.960;4.136;2022-10-16T06:00:04;100775.56;;;12.42;100.00
51271;BME280;37744;50.960;4.136;2022-10-16T06:02:30;100780.50;;;12.50;100.00
51271;BME280;37744;50.960;4.136;2022-10-16T06:04:58;100777.88;;;12.50;100.00
51271;BME280;37744;50.960;4.136;2022-10-16T06:07:27;100786.41;;;12.55;100.00
51271;BME280;37744;50.960;4.136;2022-10-16T06:09:53;100789.84;;;12.57;100.00
51271;BME280;37744;50.960;4.136;2022-10-16T06:12:20;100787.28;;;12.55;100.00
51271;BME280;37744;50.960;4.136;2022-10-16T06:14:48;100797.63;;;12.60;100.00
51271;BME280;37744;50.960;4.136;2022-10-16T06:17:17;100799.44;;;12.58;100.00
51271;BME280;37744;50.960;4.136;2022-10-16T06:19:43;100803.81;;;12.59;100.00
51271;BME280;37744;50.960;4.136;2022-10-16T06:22:11;100811.91;;;12.54;100.00
51271;BME280;37744;50.960;4.136;2022-10-16T06:24:39;100811.00;;;12.55;100.00
51271;BME280;37744;50.960;4.136;2022-10-16T06:27:05;100811.72;;;12.59;100.00
51271;BME280;37744;50.960;4.136;2022-10-16T06:29:30;100819.75;;;12.56;100.00
51271;BME280;37744;50.960;4.136;2022-10-16T06:31:58;100814.28;;;12.60;100.00
51271;BME280;37744;50.960;4.136;2022-10-16T06:34:24;100812.50;;;12.61;100.00
51271;BME280;37744;50.960;4.136;2022-10-16T06:36:51;100812.38;;;12.64;100.00
51271;BME280;37744;50.960;4.136;2022-10-16T06:39:17;100812.63;;;12.58;100.00
51271;BME280;37744;50.960;4.136;2022-10-16T06:41:42;100809.09;;;12.59;100.00
51271;BME280;37744;50.960;4.136;2022-10-16T06:44:08;100829.25;;;12.60;100.00
51271;BME280;37744;50.960;4.136;2022-10-16T06:46:34;100826.53;;;12.61;100.00
51271;BME280;37744;50.960;4.136;2022-10-16T06:49:00;100828.56;;;12.55;100.00
51271;BME280;37744;50.960;4.136;2022-10-16T06:51:26;100837.03;;;12.63;100.00
51271;BME280;37744;50.960;4.136;2022-10-16T06:53:55;100844.13;;;12.61;100.00
51271;BME280;37744;50.960;4.136;2022-10-16T06:56:25;100845.72;;;12.65;100.00
51271;BME280;37744;50.960;4.136;2022-10-16T06:58:52;100848.34;;;12.65;100.00
51271;BME280;37744;50.960;4.136;2022-10-16T07:01:20;100857.13;;;12.66;100.00
51271;BME280;37744;50.960;4.136;2022-10-16T07:03:48;100874.66;;;12.67;100.00
51271;BME280;37744;50.960;4.136;2022-10-16T07:06:18;100876.56;;;12.63;100.00
51271;BME280;37744;50.960;4.136;2022-10-16T07:08:46;100878.22;;;12.66;100.00
51271;BME280;37744;50.960;4.136;2022-10-16T07:11:14;100889.47;;;12.69;100.00
51271;BME280;37744;50.960;4.136;2022-10-16T07:13:42;100897.25;;;12.72;100.00
51271;BME280;37744;50.960;4.136;2022-10-16T07:16:16;100898.97;;;12.73;100.00
51271;BME280;37744;50.960;4.136;2022-10-16T07:18:44;100911.16;;;12.76;100.00
51271;BME280;37744;50.960;4.136;2022-10-16T07:21:19;100910.94;;;12.81;100.00
51271;BME280;37744;50.960;4.136;2022-10-16T07:23:49;100915.19;;;12.85;100.00
51271;BME280;37744;50.960;4.136;2022-10-16T07:26:15;100927.69;;;12.80;100.00
51271;BME280;37744;50.960;4.136;2022-10-16T07:28:42;100935.03;;;12.94;100.00
51271;BME280;37744;50.960;4.136;2022-10-16T07:31:10;100935.03;;;12.94;100.00
51271;BME280;37744;50.960;4.136;2022-10-16T07:33:38;100929.75;;;12.94;100.00
51271;BME280;37744;50.960;4.136;2022-10-16T07:36:04;100932.34;;;12.95;100.00
51271;BME280;37744;50.960;4.136;2022-10-16T07:38:30;100945.53;;;12.95;100.00
51271;BME280;37744;50.960;4.136;2022-10-16T07:41:00;100948.03;;;12.98;100.00
51271;BME280;37744;50.960;4.136;2022-10-16T07:43:27;100960.88;;;13.06;100.00
51271;BME280;37744;50.960;4.136;2022-10-16T07:45:53;100959.75;;;13.12;100.00
51271;BME280;37744;50.960;4.136;2022-10-16T07:48:28;100956.19;;;13.13;100.00
51271;BME280;37744;50.960;4.136;2022-10-16T07:51:00;100957.91;;;13.14;100.00
51271;BME280;37744;50.960;4.136;2022-10-16T07:53:29;100953.44;;;13.16;100.00
51271;BME280;37744;50.960;4.136;2022-10-16T07:56:03;100957.38;;;13.26;100.00
51271;BME280;37744;50.960;4.136;2022-10-16T07:58:30;100957.47;;;13.25;100.00
51271;BME280;37744;50.960;4.136;2022-10-16T08:00:57;100968.41;;;13.36;100.00
51271;BME280;37744;50.960;4.136;2022-10-16T08:03:25;100970.97;;;13.38;100.00
51271;BME280;37744;50.960;4.136;2022-10-16T08:05:51;100967.53;;;13.36;100.00
51271;BME280;37744;50.960;4.136;2022-10-16T08:08:18;100977.94;;;13.39;100.00
51271;BME280;37744;50.960;4.136;2022-10-16T08:10:44;100974.94;;;13.48;100.00
51271;BME280;37744;50.960;4.136;2022-10-16T08:13:11;100978.47;;;13.49;100.00
51271;BME280;37744;50.960;4.136;2022-10-16T08:15:37;100976.56;;;13.52;100.00
51271;BME280;37744;50.960;4.136;2022-10-16T08:18:06;100964.28;;;13.51;100.00
51271;BME280;37744;50.960;4.136;2022-10-16T08:20:33;100966.63;;;13.57;100.00
51271;BME280;37744;50.960;4.136;2022-10-16T08:23:01;100973.75;;;13.55;100.00
51271;BME280;37744;50.960;4.136;2022-10-16T08:25:35;100975.06;;;13.66;100.00
51271;BME280;37744;50.960;4.136;2022-10-16T08:28:07;100980.34;;;13.66;100.00
51271;BME280;37744;50.960;4.136;2022-10-16T08:30:34;100980.94;;;13.72;100.00
51271;BME280;37744;50.960;4.136;2022-10-16T08:33:00;100983.81;;;13.87;100.00
51271;BME280;37744;50.960;4.136;2022-10-16T08:35:26;100978.81;;;13.81;100.00
51271;BME280;37744;50.960;4.136;2022-10-16T08:37:51;100988.50;;;13.80;100.00
51271;BME280;37744;50.960;4.136;2022-10-16T08:40:25;100994.94;;;13.94;100.00
51271;BME280;37744;50.960;4.136;2022-10-16T08:48:59;101004.25;;;14.03;100.00
51271;BME280;37744;50.960;4.136;2022-10-16T08:51:36;100998.03;;;14.04;100.00
51271;BME280;37744;50.960;4.136;2022-10-16T08:56:49;101009.66;;;14.19;100.00
51271;BME280;37744;50.960;4.136;2022-10-16T08:59:18;101010.53;;;14.19;100.00
51271;BME280;37744;50.960;4.136;2022-10-16T09:01:47;101011.09;;;14.26;100.00
51271;BME280;37744;50.960;4.136;2022-10-16T09:07:00;101019.38;;;14.37;100.00
51271;BME280;37744;50.960;4.136;2022-10-16T09:12:41;101022.66;;;14.42;100.00
51271;BME280;37744;50.960;4.136;2022-10-16T09:15:32;101020.66;;;14.48;100.00
51271;BME280;37744;50.960;4.136;2022-10-16T09:20:52;101031.75;;;14.56;100.00
51271;BME280;37744;50.960;4.136;2022-10-16T09:23:25;101022.56;;;14.63;100.00
51271;BME280;37744;50.960;4.136;2022-10-16T09:25:51;101034.56;;;14.70;100.00
51271;BME280;37744;50.960;4.136;2022-10-16T09:28:18;101042.88;;;14.63;100.00
51271;BME280;37744;50.960;4.136;2022-10-16T09:30:47;101038.91;;;14.71;100.00
51271;BME280;37744;50.960;4.136;2022-10-16T09:33:18;101040.50;;;14.76;100.00
51271;BME280;37744;50.960;4.136;2022-10-16T09:35:50;101036.88;;;14.78;100.00
51271;BME280;37744;50.960;4.136;2022-10-16T09:38:33;101025.78;;;14.89;100.00
51271;BME280;37744;50.960;4.136;2022-10-16T09:41:14;101029.03;;;14.94;100.00
51271;BME280;37744;50.960;4.136;2022-10-16T09:43:53;101037.59;;;14.99;100.00
51271;BME280;37744;50.960;4.136;2022-10-16T09:54:17;101045.72;;;15.14;100.00
51271;BME280;37744;50.960;4.136;2022-10-16T09:56:43;101053.56;;;15.16;100.00
51271;BME280;37744;50.960;4.136;2022-10-16T09:59:16;101058.34;;;15.26;100.00
51271;BME280;37744;50.960;4.136;2022-10-16T10:01:47;101062.53;;;15.31;100.00
51271;BME280;37744;50.960;4.136;2022-10-16T10:04:13;101057.72;;;15.39;100.00
51271;BME280;37744;50.960;4.136;2022-10-16T10:06:51;101067.97;;;15.45;100.00
51271;BME280;37744;50.960;4.136;2022-10-16T10:09:28;101070.25;;;15.53;100.00
51271;BME280;37744;50.960;4.136;2022-10-16T10:12:00;101070.88;;;15.58;100.00
51271;BME280;37744;50.960;4.136;2022-10-16T10:14:34;101068.47;;;15.71;100.00
51271;BME280;37744;50.960;4.136;2022-10-16T10:19:50;101070.47;;;15.83;100.00
51271;BME280;37744;50.960;4.136;2022-10-16T10:22:17;101075.22;;;15.77;100.00
51271;BME280;37744;50.960;4.136;2022-10-16T10:28:15;101083.06;;;15.78;100.00
51271;BME280;37744;50.960;4.136;2022-10-16T10:33:27;101078.72;;;15.77;100.00
51271;BME280;37744;50.960;4.136;2022-10-16T10:38:54;101078.41;;;15.83;100.00
51271;BME280;37744;50.960;4.136;2022-10-16T11:00:33;101086.72;;;16.77;98.29
51271;BME280;37744;50.960;4.136;2022-10-16T11:03:38;101085.31;;;16.86;99.26
51271;BME280;37744;50.960;4.136;2022-10-16T11:06:30;101090.66;;;17.02;98.93
51271;BME280;37744;50.960;4.136;2022-10-16T11:09:10;101088.16;;;16.99;97.03
51271;BME280;37744;50.960;4.136;2022-10-16T11:11:46;101086.72;;;17.09;95.20
51271;BME280;37744;50.960;4.136;2022-10-16T11:16:49;101088.47;;;17.25;94.50
51271;BME280;37744;50.960;4.136;2022-10-16T11:22:11;101090.09;;;17.27;91.84
51271;BME280;37744;50.960;4.136;2022-10-16T11:24:54;101080.72;;;17.05;94.30
51271;BME280;37744;50.960;4.136;2022-10-16T11:27:38;101084.13;;;16.91;93.75
51271;BME280;37744;50.960;4.136;2022-10-16T11:30:19;101088.50;;;17.08;nan
51271;BME280;37744;50.960;4.136;2022-10-16T11:35:47;101079.56;;;16.93;95.75
51271;BME280;37744;50.960;4.136;2022-10-16T11:40:54;101083.53;;;17.02;94.07
51271;BME280;37744;50.960;4.136;2022-10-16T11:43:36;101084.28;;;17.20;95.77
51271;BME280;37744;50.960;4.136;2022-10-16T11:46:23;101085.63;;;17.28;93.58
51271;BME280;37744;50.960;4.136;2022-10-16T11:49:15;101088.06;;;17.16;93.92
51271;BME280;37744;50.960;4.136;2022-10-16T11:52:06;101073.84;;;17.17;95.22
51271;BME280;37744;50.960;4.136;2022-10-16T11:57:35;101062.16;;;17.36;90.92
51271;BME280;37744;50.960;4.136;2022-10-16T12:00:09;101060.75;;;17.45;91.63
51271;BME280;37744;50.960;4.136;2022-10-16T12:02:53;101062.38;;;17.47;95.70
51271;BME280;37744;50.960;4.136;2022-10-16T12:08:47;101065.63;;;17.67;89.52
51271;BME280;37744;50.960;4.136;2022-10-16T12:16:59;101080.50;;;17.25;90.23
51271;BME280;37744;50.960;4.136;2022-10-16T12:19:27;101072.69;;;17.38;88.96
51271;BME280;37744;50.960;4.136;2022-10-16T12:21:56;101078.88;;;17.53;92.48
51271;BME280;37744;50.960;4.136;2022-10-16T12:24:33;101079.81;;;17.51;90.19
51271;BME280;37744;50.960;4.136;2022-10-16T12:26:59;101074.88;;;17.45;90.03
51271;BME280;37744;50.960;4.136;2022-10-16T12:32:05;101075.78;;;17.75;89.16
51271;BME280;37744;50.960;4.136;2022-10-16T12:34:52;101074.94;;;17.89;89.59
51271;BME280;37744;50.960;4.136;2022-10-16T12:37:21;101085.91;;;18.13;88.60
51271;BME280;37744;50.960;4.136;2022-10-16T12:39:49;101079.03;;;18.38;88.32
51271;BME280;37744;50.960;4.136;2022-10-16T12:42:35;101090.16;;;18.30;85.61
51271;BME280;37744;50.960;4.136;2022-10-16T12:45:01;101087.13;;;18.08;83.74
51271;BME280;37744;50.960;4.136;2022-10-16T12:47:38;101092.66;;;18.04;85.95
51271;BME280;37744;50.960;4.136;2022-10-16T12:50:41;101089.03;;;18.05;85.87
51271;BME280;37744;50.960;4.136;2022-10-16T12:53:20;101075.72;;;17.91;85.54
51271;BME280;37744;50.960;4.136;2022-10-16T12:56:18;101089.16;;;17.88;85.70
51271;BME280;37744;50.960;4.136;2022-10-16T13:06:39;101090.66;;;18.08;84.62
51271;BME280;37744;50.960;4.136;2022-10-16T13:09:30;101092.06;;;18.28;86.03
51271;BME280;37744;50.960;4.136;2022-10-16T13:15:27;101099.59;;;18.07;86.31
51271;BME280;37744;50.960;4.136;2022-10-16T13:18:04;101090.31;;;17.98;87.03
51271;BME280;37744;50.960;4.136;2022-10-16T13:23:16;101084.44;;;17.93;88.31
51271;BME280;37744;50.960;4.136;2022-10-16T13:28:34;101087.84;;;17.95;87.50
51271;BME280;37744;50.960;4.136;2022-10-16T13:31:01;101079.88;;;17.95;89.07
51271;BME280;37744;50.960;4.136;2022-10-16T13:33:41;101081.63;;;18.11;89.37
51271;BME280;37744;50.960;4.136;2022-10-16T13:36:33;101081.81;;;18.22;88.14
51271;BME280;37744;50.960;4.136;2022-10-16T13:44:23;101083.25;;;18.13;83.97
51271;BME280;37744;50.960;4.136;2022-10-16T13:47:01;101075.94;;;18.17;85.71
51271;BME280;37744;50.960;4.136;2022-10-16T13:49:27;101074.97;;;18.18;87.07
51271;BME280;37744;50.960;4.136;2022-10-16T13:52:01;101087.25;;;18.20;87.63
51271;BME280;37744;50.960;4.136;2022-10-16T13:54:27;101084.75;;;18.17;88.26
51271;BME280;37744;50.960;4.136;2022-10-16T13:57:04;101080.88;;;18.09;87.79
51271;BME280;37744;50.960;4.136;2022-10-16T13:59:34;101076.31;;;18.11;87.82
51271;BME280;37744;50.960;4.136;2022-10-16T14:02:15;101074.44;;;18.13;89.93
51271;BME280;37744;50.960;4.136;2022-10-16T14:04:43;101080.97;;;18.22;89.45
51271;BME280;37744;50.960;4.136;2022-10-16T14:07:19;101084.00;;;18.30;88.27
51271;BME280;37744;50.960;4.136;2022-10-16T14:09:50;101075.91;;;18.31;86.22
51271;BME280;37744;50.960;4.136;2022-10-16T14:12:19;101070.41;;;18.34;86.33
51271;BME280;37744;50.960;4.136;2022-10-16T14:14:47;101078.53;;;18.46;86.70
51271;BME280;37744;50.960;4.136;2022-10-16T14:19:50;101063.28;;;18.77;86.82
51271;BME280;37744;50.960;4.136;2022-10-16T14:22:39;101061.22;;;18.68;85.17
51271;BME280;37744;50.960;4.136;2022-10-16T14:28:04;101061.22;;;19.23;84.73
51271;BME280;37744;50.960;4.136;2022-10-16T14:30:31;101064.09;;;19.20;83.31
51271;BME280;37744;50.960;4.136;2022-10-16T14:33:02;101071.22;;;18.91;84.23
51271;BME280;37744;50.960;4.136;2022-10-16T14:35:35;101069.34;;;18.79;85.48
51271;BME280;37744;50.960;4.136;2022-10-16T14:38:04;101062.91;;;18.69;86.16
51271;BME280;37744;50.960;4.136;2022-10-16T14:40:35;101071.91;;;18.53;86.70
51271;BME280;37744;50.960;4.136;2022-10-16T14:43:02;101078.97;;;18.40;86.49
51271;BME280;37744;50.960;4.136;2022-10-16T14:45:32;101081.63;;;18.25;87.37
51271;BME280;37744;50.960;4.136;2022-10-16T14:48:04;101084.56;;;18.20;87.08
51271;BME280;37744;50.960;4.136;2022-10-16T14:50:32;101080.09;;;18.21;89.29
51271;BME280;37744;50.960;4.136;2022-10-16T14:52:59;101067.47;;;18.25;88.93
51271;BME280;37744;50.960;4.136;2022-10-16T14:55:25;101054.84;;;18.28;89.34
51271;BME280;37744;50.960;4.136;2022-10-16T14:57:53;101046.47;;;18.20;89.75
51271;BME280;37744;50.960;4.136;2022-10-16T15:00:23;101054.47;;;18.20;89.93
51271;BME280;37744;50.960;4.136;2022-10-16T15:02:50;101068.16;;;18.14;89.59
51271;BME280;37744;50.960;4.136;2022-10-16T15:05:19;101068.25;;;18.12;89.63
51271;BME280;37744;50.960;4.136;2022-10-16T15:07:46;101071.25;;;18.06;90.57
51271;BME280;37744;50.960;4.136;2022-10-16T15:10:16;101078.31;;;18.07;90.51
51271;BME280;37744;50.960;4.136;2022-10-16T15:12:44;101070.44;;;18.05;91.95